Time;durP1;ratioP1;P1;durP2;ratioP2;P2;SDS_P1;SDS_P2;PMS_P1;PMS_P2;Temp;Humidity;BMP_temperature;BMP_pressure;BME280_temperature;BME280_humidity;BME280_pressure;Samples;Min_cycle;Max_cycle;Signal;HPM_P1;HPM_P2
2023/12/22 00:01:26;;;;;;;7.20;1.45;;;10.30;99.90;;;;;;5066276;28;20017;-50
2023/12/22 00:03:52;;;;;;;7.93;1.35;;;10.20;99.90;;;;;;5066291;28;20033;-50
2023/12/22 00:06:18;;;;;;;10.15;1.38;;;10.30;99.90;;;;;;5066224;28;20032;-50
2023/12/22 00:08:43;;;;;;;5.85;1.10;;;10.30;99.90;;;;;;5067561;28;20024;-50
2023/12/22 00:11:09;;;;;;;3.63;0.90;;;10.20;99.90;;;;;;5099851;28;20025;-50
2023/12/22 00:13:34;;;;;;;5.40;1.23;;;10.20;99.90;;;;;;5066081;28;20115;-50
2023/12/22 00:16:00;;;;;;;5.95;1.17;;;10.30;99.90;;;;;;5066128;28;20021;-50
2023/12/22 00:18:26;;;;;;;4.18;1.50;;;10.20;99.90;;;;;;5065457;28;20480;-50
2023/12/22 00:20:52;;;;;;;6.70;0.80;;;10.30;99.90;;;;;;5065994;28;20109;-50
2023/12/22 00:23:18;;;;;;;5.78;1.20;;;10.20;99.90;;;;;;5066263;28;20412;-50
2023/12/22 00:25:43;;;;;;;4.15;0.80;;;10.20;99.90;;;;;;5065987;28;20473;-50
2023/12/22 00:28:09;;;;;;;5.10;1.20;;;10.20;99.90;;;;;;5065942;28;20025;-50
2023/12/22 00:30:34;;;;;;;4.32;0.95;;;10.20;99.90;;;;;;5065853;28;20059;-50
2023/12/22 00:33:00;;;;;;;2.63;1.15;;;10.20;99.90;;;;;;5067053;28;20366;-50
2023/12/22 00:35:25;;;;;;;4.38;0.90;;;10.20;99.90;;;;;;5066720;28;20029;-50
2023/12/22 00:37:52;;;;;;;3.53;1.10;;;10.20;99.90;;;;;;5067132;28;20021;-50
2023/12/22 00:40:18;;;;;;;6.45;1.10;;;10.20;99.90;;;;;;5065746;28;20040;-50
2023/12/22 00:42:44;;;;;;;1.02;0.73;;;10.20;99.90;;;;;;5065645;28;20021;-50
2023/12/22 00:45:10;;;;;;;3.80;1.20;;;10.10;99.90;;;;;;5066932;28;20033;-50
2023/12/22 00:47:36;;;;;;;4.45;1.00;;;10.20;99.90;;;;;;5065661;28;20021;-50
2023/12/22 00:50:02;;;;;;;2.88;1.17;;;10.20;99.90;;;;;;5048896;28;20233;-50
2023/12/22 00:52:28;;;;;;;5.20;0.80;;;10.20;99.90;;;;;;5066874;28;20021;-50
2023/12/22 00:54:53;;;;;;;2.88;0.82;;;10.20;99.90;;;;;;5065271;28;20044;-50
2023/12/22 00:57:19;;;;;;;1.48;0.63;;;10.10;99.90;;;;;;5065359;28;20017;-50
2023/12/22 00:59:47;;;;;;;5.07;1.30;;;10.10;99.90;;;;;;5065404;28;20025;-50
2023/12/22 01:02:14;;;;;;;2.10;0.70;;;10.20;99.90;;;;;;5066534;28;20013;-50
2023/12/22 01:04:39;;;;;;;4.30;1.23;;;10.20;99.90;;;;;;5065218;28;20071;-51
2023/12/22 01:07:07;;;;;;;2.00;0.82;;;10.10;99.90;;;;;;5065433;28;20021;-50
2023/12/22 01:09:33;;;;;;;7.35;1.13;;;10.10;99.90;;;;;;5065019;28;20029;-50
2023/12/22 01:12:02;;;;;;;1.73;0.80;;;10.20;99.90;;;;;;5066622;28;20025;-50
2023/12/22 01:14:27;;;;;;;1.40;0.70;;;10.10;99.90;;;;;;5066319;28;20048;-50
2023/12/22 01:16:53;;;;;;;3.08;0.90;;;10.10;99.90;;;;;;5065248;28;20385;-50
2023/12/22 01:19:19;;;;;;;2.70;0.77;;;10.10;99.90;;;;;;5064774;28;20032;-50
2023/12/22 01:21:44;;;;;;;2.05;0.80;;;10.10;99.90;;;;;;5049336;28;20021;-51
2023/12/22 01:24:10;;;;;;;1.77;0.75;;;10.10;99.90;;;;;;5066260;28;20021;-51
2023/12/22 01:26:35;;;;;;;2.13;0.85;;;10.10;99.90;;;;;;5066000;28;20119;-50
2023/12/22 01:29:01;;;;;;;3.10;0.80;;;10.10;99.90;;;;;;5064880;28;20032;-51
2023/12/22 01:31:27;;;;;;;2.58;0.93;;;10.10;99.90;;;;;;5066089;28;20108;-50
2023/12/22 01:33:52;;;;;;;2.35;0.80;;;10.10;99.90;;;;;;5098334;28;20033;-50
2023/12/22 01:36:18;;;;;;;4.28;0.95;;;10.10;99.90;;;;;;5066200;28;20033;-50
2023/12/22 01:38:44;;;;;;;2.13;0.60;;;10.10;99.90;;;;;;5066133;28;20029;-50
2023/12/22 01:41:09;;;;;;;6.18;0.98;;;10.10;99.90;;;;;;5066481;28;20104;-50
2023/12/22 01:43:35;;;;;;;4.20;1.00;;;10.10;99.90;;;;;;5066179;28;20029;-50
2023/12/22 01:46:00;;;;;;;4.57;0.73;;;10.00;99.90;;;;;;5064945;28;20032;-50
2023/12/22 01:48:26;;;;;;;4.45;1.17;;;10.00;99.90;;;;;;5066129;28;20055;-50
2023/12/22 01:50:52;;;;;;;3.65;1.15;;;10.00;99.90;;;;;;5065027;28;20040;-50
2023/12/22 01:53:19;;;;;;;1.70;0.93;;;10.00;99.90;;;;;;5064911;28;20029;-50
2023/12/22 01:55:44;;;;;;;3.50;1.10;;;10.00;99.90;;;;;;5064560;28;20044;-50
2023/12/22 01:58:10;;;;;;;4.43;1.02;;;10.00;99.90;;;;;;5064610;28;20021;-50
2023/12/22 02:00:36;;;;;;;2.20;1.00;;;10.00;99.90;;;;;;5064554;28;20106;-50
2023/12/22 02:03:01;;;;;;;2.53;0.85;;;10.00;99.90;;;;;;5064756;28;20047;-50
2023/12/22 02:05:29;;;;;;;4.00;0.88;;;10.00;99.90;;;;;;5047889;28;20033;-50
2023/12/22 02:07:54;;;;;;;3.78;0.88;;;10.00;99.90;;;;;;5065736;28;20021;-50
2023/12/22 02:10:20;;;;;;;1.60;0.63;;;10.00;99.90;;;;;;5064398;28;20043;-50
2023/12/22 02:12:46;;;;;;;3.60;1.00;;;9.90;99.90;;;;;;5064459;28;20036;-49
2023/12/22 02:15:11;;;;;;;3.22;0.98;;;9.90;99.90;;;;;;5064506;28;20040;-50
2023/12/22 02:17:39;;;;;;;4.50;1.08;;;9.90;99.90;;;;;;5064701;28;20017;-50
2023/12/22 02:20:06;;;;;;;3.17;1.25;;;9.90;99.90;;;;;;5064343;28;20041;-50
2023/12/22 02:22:31;;;;;;;3.00;1.08;;;9.90;99.90;;;;;;5064211;28;20032;-50
2023/12/22 02:24:57;;;;;;;2.90;0.95;;;9.90;99.90;;;;;;5064517;28;20104;-50
2023/12/22 02:27:44;;;;;;;1.73;0.85;;;9.90;99.90;;;;;;5065503;28;20036;-49
2023/12/22 02:30:13;;;;;;;2.70;0.77;;;9.90;99.90;;;;;;5065907;28;20040;-50
2023/12/22 02:32:41;;;;;;;4.57;1.10;;;9.90;99.90;;;;;;5064319;28;20029;-50
2023/12/22 02:35:11;;;;;;;2.55;1.10;;;9.90;99.90;;;;;;5063905;28;20041;-49
2023/12/22 02:37:36;;;;;;;2.38;0.90;;;9.90;99.90;;;;;;5065251;28;20032;-50
2023/12/22 02:40:02;;;;;;;3.83;1.08;;;9.90;99.90;;;;;;5064184;28;20036;-50
2023/12/22 02:42:30;;;;;;;4.13;1.00;;;9.90;99.90;;;;;;5065808;28;20028;-50
2023/12/22 02:44:59;;;;;;;4.70;1.27;;;9.80;99.90;;;;;;5084658;28;20033;-50
2023/12/22 02:47:25;;;;;;;2.05;0.95;;;9.80;99.90;;;;;;5067714;28;20032;-50
2023/12/22 02:49:50;;;;;;;4.15;1.30;;;9.80;99.90;;;;;;5068856;28;20041;-50
2023/12/22 02:52:16;;;;;;;1.17;0.73;;;9.80;99.90;;;;;;5067887;28;20036;-50
2023/12/22 02:54:41;;;;;;;2.10;0.73;;;9.80;99.90;;;;;;5067674;28;20597;-50
2023/12/22 02:57:08;;;;;;;2.90;1.00;;;9.80;99.90;;;;;;5068915;28;20059;-50
2023/12/22 02:59:33;;;;;;;2.25;0.95;;;9.80;99.90;;;;;;5067598;28;20021;-50
2023/12/22 03:01:59;;;;;;;1.30;0.75;;;9.70;99.90;;;;;;5067632;28;20025;-50
2023/12/22 03:04:24;;;;;;;3.45;0.90;;;9.80;99.90;;;;;;5067287;28;20040;-50
2023/12/22 03:06:50;;;;;;;2.65;0.98;;;9.70;99.90;;;;;;5067361;28;20025;-50
2023/12/22 03:09:16;;;;;;;2.00;0.70;;;9.70;99.90;;;;;;5067311;28;20030;-50
2023/12/22 03:11:41;;;;;;;2.60;0.90;;;9.70;99.90;;;;;;5067479;28;20032;-50
2023/12/22 03:14:08;;;;;;;1.85;0.77;;;9.70;99.90;;;;;;5050461;28;20029;-50
2023/12/22 03:16:33;;;;;;;2.45;0.80;;;9.70;99.90;;;;;;5068497;28;20075;-50
2023/12/22 03:18:59;;;;;;;2.13;0.80;;;9.70;99.90;;;;;;5068491;28;20477;-50
2023/12/22 03:21:25;;;;;;;3.63;0.95;;;9.70;99.90;;;;;;5066970;28;20032;-50
2023/12/22 03:23:50;;;;;;;2.33;0.82;;;9.70;99.90;;;;;;5068452;28;20086;-50
2023/12/22 03:26:16;;;;;;;3.03;0.93;;;9.70;99.90;;;;;;5068360;28;20048;-50
2023/12/22 03:28:41;;;;;;;2.30;0.90;;;9.70;99.90;;;;;;5067096;28;20053;-50
2023/12/22 03:31:07;;;;;;;2.83;0.80;;;9.70;99.90;;;;;;5068077;28;20017;-50
2023/12/22 03:33:33;;;;;;;3.20;1.23;;;9.60;99.90;;;;;;5066660;28;20031;-50
2023/12/22 03:35:59;;;;;;;2.35;0.93;;;9.60;99.90;;;;;;5067940;28;20033;-50
2023/12/22 03:38:24;;;;;;;1.85;0.70;;;9.60;99.90;;;;;;5068061;28;20028;-50
2023/12/22 03:40:50;;;;;;;3.03;0.93;;;9.60;99.90;;;;;;5067915;28;20060;-50
2023/12/22 03:43:15;;;;;;;1.92;0.80;;;9.60;99.90;;;;;;5066964;28;20025;-50
2023/12/22 03:45:41;;;;;;;3.47;1.30;;;9.60;99.90;;;;;;5068081;28;20033;-50
2023/12/22 03:48:06;;;;;;;1.40;1.02;;;9.60;99.90;;;;;;5066635;28;20029;-50
2023/12/22 03:50:32;;;;;;;2.55;0.90;;;9.60;99.90;;;;;;5067848;28;20037;-50
2023/12/22 03:52:58;;;;;;;2.83;1.30;;;9.60;99.90;;;;;;5066453;28;20056;-50
2023/12/22 03:55:23;;;;;;;3.28;1.00;;;9.60;99.90;;;;;;5067809;28;20040;-50
2023/12/22 03:57:49;;;;;;;7.80;1.50;;;9.60;99.90;;;;;;5066667;28;20465;-50
2023/12/22 04:00:16;;;;;;;3.65;1.13;;;9.60;99.90;;;;;;5066521;28;20021;-50
2023/12/22 04:02:41;;;;;;;3.13;1.20;;;9.60;99.90;;;;;;5067582;28;20067;-50
2023/12/22 04:05:07;;;;;;;3.60;1.13;;;9.60;99.90;;;;;;5066319;28;20075;-50
2023/12/22 04:07:33;;;;;;;4.15;1.35;;;9.60;99.90;;;;;;5066324;28;20095;-50
2023/12/22 04:09:59;;;;;;;3.28;1.23;;;9.60;99.90;;;;;;5067485;28;20025;-50
2023/12/22 04:12:24;;;;;;;2.80;1.08;;;9.60;99.90;;;;;;5066078;28;20033;-50
2023/12/22 04:14:50;;;;;;;2.00;1.00;;;9.60;99.90;;;;;;5067500;28;20039;-50
2023/12/22 04:17:15;;;;;;;3.40;1.25;;;9.60;99.90;;;;;;5066152;28;20049;-50
2023/12/22 04:19:41;;;;;;;1.77;0.95;;;9.60;99.90;;;;;;5066221;28;20075;-50
2023/12/22 04:22:06;;;;;;;1.63;0.80;;;9.50;99.90;;;;;;5067226;28;20047;-50
2023/12/22 04:24:32;;;;;;;2.20;1.02;;;9.60;99.90;;;;;;5067294;28;20037;-50
2023/12/22 04:26:58;;;;;;;1.67;0.68;;;9.50;99.90;;;;;;5065826;28;20112;-50
2023/12/22 04:29:23;;;;;;;2.92;0.82;;;9.50;99.90;;;;;;5066855;28;20033;-50
2023/12/22 04:31:49;;;;;;;3.50;0.93;;;9.50;99.90;;;;;;5065842;28;20061;-50
2023/12/22 04:34:15;;;;;;;3.20;1.10;;;9.50;99.90;;;;;;5065579;28;20445;-50
2023/12/22 04:36:41;;;;;;;1.80;0.90;;;9.50;99.90;;;;;;5065783;28;20036;-50
2023/12/22 04:39:07;;;;;;;3.38;1.17;;;9.50;99.90;;;;;;5065833;28;20033;-50
2023/12/22 04:41:32;;;;;;;7.18;1.27;;;9.50;99.90;;;;;;5065702;28;20028;-50
2023/12/22 04:43:58;;;;;;;2.75;1.20;;;9.50;99.90;;;;;;5066917;28;20377;-50
2023/12/22 04:46:23;;;;;;;3.38;1.23;;;9.50;99.90;;;;;;5066912;28;20032;-50
2023/12/22 04:48:49;;;;;;;3.95;1.10;;;9.50;99.90;;;;;;5065325;28;20047;-50
2023/12/22 04:51:15;;;;;;;4.03;1.05;;;9.50;99.90;;;;;;5065630;28;20020;-50
2023/12/22 04:53:40;;;;;;;2.90;1.15;;;9.50;99.90;;;;;;5048578;28;20036;-50
2023/12/22 04:56:06;;;;;;;4.22;1.48;;;9.50;99.90;;;;;;5065385;28;20031;-50
2023/12/22 04:58:32;;;;;;;4.60;1.20;;;9.50;99.90;;;;;;5065463;28;20082;-50
2023/12/22 05:00:59;;;;;;;5.25;1.13;;;9.50;99.90;;;;;;5066535;28;20025;-50
2023/12/22 05:03:24;;;;;;;7.90;1.58;;;9.50;99.90;;;;;;5066615;28;20025;-50
2023/12/22 05:05:50;;;;;;;3.38;1.23;;;9.50;99.90;;;;;;5066312;28;20110;-50
2023/12/22 05:08:16;;;;;;;3.38;1.13;;;9.50;99.90;;;;;;5066344;28;20029;-50
2023/12/22 05:10:41;;;;;;;3.65;1.35;;;9.50;99.90;;;;;;5066831;28;20032;-50
2023/12/22 05:13:07;;;;;;;3.35;1.27;;;9.50;99.90;;;;;;5066883;28;20108;-50
2023/12/22 05:15:33;;;;;;;6.20;1.80;;;9.50;99.90;;;;;;5066447;28;20052;-50
2023/12/22 05:17:58;;;;;;;3.45;1.30;;;9.50;99.90;;;;;;5064964;28;20465;-50
2023/12/22 05:20:24;;;;;;;5.90;1.52;;;9.50;99.90;;;;;;5065662;28;20029;-50
2023/12/22 05:22:49;;;;;;;6.43;1.73;;;9.50;99.90;;;;;;5066532;28;20029;-50
2023/12/22 05:25:15;;;;;;;7.93;1.88;;;9.50;99.90;;;;;;5066431;28;20063;-50
2023/12/22 05:27:42;;;;;;;4.28;1.60;;;9.50;99.90;;;;;;5066210;28;20496;-50
2023/12/22 05:30:08;;;;;;;5.03;1.80;;;9.50;99.90;;;;;;5048292;28;20044;-50
2023/12/22 05:32:34;;;;;;;5.40;1.80;;;9.50;99.90;;;;;;5064878;28;20029;-50
2023/12/22 05:34:59;;;;;;;6.43;1.80;;;9.50;99.90;;;;;;5065801;28;20393;-50
2023/12/22 05:37:25;;;;;;;4.82;1.60;;;9.40;99.90;;;;;;5066240;28;20028;-50
2023/12/22 05:39:51;;;;;;;5.32;1.90;;;9.50;99.90;;;;;;5066649;28;20029;-50
2023/12/22 05:42:16;;;;;;;7.10;1.80;;;9.50;99.90;;;;;;5064979;28;20028;-50
2023/12/22 05:44:42;;;;;;;8.55;1.95;;;9.50;99.90;;;;;;5064884;28;20097;-50
2023/12/22 05:47:08;;;;;;;6.18;2.00;;;9.40;99.90;;;;;;5066091;28;20440;-50
2023/12/22 05:49:33;;;;;;;6.53;1.60;;;9.50;99.90;;;;;;5064941;28;20025;-50
2023/12/22 05:51:59;;;;;;;8.52;2.28;;;9.50;99.90;;;;;;5066059;28;20029;-50
2023/12/22 05:54:25;;;;;;;6.03;1.58;;;9.50;99.90;;;;;;5064709;28;20488;-50
2023/12/22 05:56:51;;;;;;;5.32;1.75;;;9.50;99.70;;;;;;5064737;28;20017;-50
2023/12/22 05:59:17;;;;;;;4.72;1.60;;;9.50;99.70;;;;;;5066086;28;20030;-50
2023/12/22 06:01:43;;;;;;;5.28;1.77;;;9.50;99.60;;;;;;5064839;28;20033;-50
2023/12/22 06:04:08;;;;;;;6.90;2.00;;;9.50;99.60;;;;;;5065906;28;20072;-50
2023/12/22 06:06:35;;;;;;;5.65;1.80;;;9.50;99.50;;;;;;5064495;28;20029;-50
2023/12/22 06:09:01;;;;;;;6.93;2.08;;;9.50;99.40;;;;;;5064397;28;20063;-50
2023/12/22 06:11:27;;;;;;;4.85;1.67;;;9.40;99.50;;;;;;5062861;28;20032;-50
2023/12/22 06:13:52;;;;;;;6.05;1.50;;;9.50;99.50;;;;;;5058134;28;20025;-50
2023/12/22 06:16:18;;;;;;;7.22;2.30;;;9.50;99.40;;;;;;5065831;28;20032;-50
2023/12/22 06:18:44;;;;;;;5.03;1.67;;;9.50;99.30;;;;;;5051348;28;20439;-50
2023/12/22 06:21:10;;;;;;;4.88;1.80;;;9.50;99.20;;;;;;5069666;28;20025;-50
2023/12/22 06:23:36;;;;;;;6.25;1.90;;;9.40;99.20;;;;;;5068067;28;20021;-50
2023/12/22 06:26:02;;;;;;;4.80;1.85;;;9.40;99.20;;;;;;5068223;28;20031;-50
2023/12/22 06:28:28;;;;;;;5.68;1.60;;;9.50;99.10;;;;;;5069509;28;20032;-50
2023/12/22 06:30:54;;;;;;;6.30;2.10;;;9.50;99.10;;;;;;5069241;28;20033;-50
2023/12/22 06:33:20;;;;;;;9.63;1.85;;;9.50;98.90;;;;;;5069339;28;20024;-50
2023/12/22 06:35:45;;;;;;;7.35;1.75;;;9.50;98.90;;;;;;5066832;28;20044;-50
2023/12/22 06:38:11;;;;;;;5.07;1.88;;;9.50;99.00;;;;;;5068041;28;20032;-50
2023/12/22 06:40:37;;;;;;;4.75;1.60;;;9.50;98.80;;;;;;5069356;28;20033;-50
2023/12/22 06:43:04;;;;;;;5.30;1.88;;;9.40;98.70;;;;;;5051421;28;20051;-50
2023/12/22 06:45:30;;;;;;;5.85;1.90;;;9.50;98.70;;;;;;5067700;28;20120;-50
2023/12/22 06:47:55;;;;;;;6.53;1.67;;;9.50;98.60;;;;;;5067644;28;20025;-50
2023/12/22 06:50:21;;;;;;;7.50;2.00;;;9.50;98.40;;;;;;5067608;28;20036;-50
2023/12/22 06:52:46;;;;;;;7.75;1.80;;;9.50;98.40;;;;;;5067848;28;20021;-50
2023/12/22 06:55:12;;;;;;;6.10;2.10;;;9.50;98.30;;;;;;5068802;28;20041;-50
2023/12/22 06:57:38;;;;;;;4.10;1.67;;;9.50;98.30;;;;;;5067820;28;20029;-50
2023/12/22 07:00:04;;;;;;;6.60;1.98;;;9.40;98.20;;;;;;5067611;28;20031;-50
2023/12/22 07:02:30;;;;;;;5.78;1.90;;;9.40;98.20;;;;;;5067480;28;20021;-50
2023/12/22 07:05:22;;;;;;;9.45;1.95;;;9.40;98.10;;;;;;5067758;28;20131;-50
2023/12/22 07:07:48;;;;;;;5.63;1.95;;;9.40;98.00;;;;;;5069771;28;20123;-50
2023/12/22 07:10:14;;;;;;;6.07;1.98;;;9.40;97.90;;;;;;5083919;28;20059;-50
2023/12/22 07:12:39;;;;;;;8.45;1.92;;;9.40;97.90;;;;;;5083491;28;20111;-50
2023/12/22 07:15:08;;;;;;;8.35;2.03;;;9.50;97.90;;;;;;5064858;28;20092;-50
2023/12/22 07:17:34;;;;;;;5.78;1.67;;;9.40;97.90;;;;;;5062215;28;20118;-50
2023/12/22 07:20:02;;;;;;;6.38;1.60;;;9.40;97.90;;;;;;5064498;28;20041;-50
2023/12/22 07:22:28;;;;;;;6.97;1.90;;;9.40;97.90;;;;;;5065106;28;20028;-50
2023/12/22 07:24:55;;;;;;;5.43;1.83;;;9.40;98.00;;;;;;5084948;28;20033;-50
2023/12/22 07:27:21;;;;;;;6.13;1.90;;;9.40;98.10;;;;;;5085933;28;20040;-50
2023/12/22 07:29:46;;;;;;;13.88;2.00;;;9.40;98.20;;;;;;5085922;28;20036;-50
2023/12/22 07:32:12;;;;;;;9.35;1.95;;;9.40;98.20;;;;;;5064315;28;20029;-50
2023/12/22 07:34:38;;;;;;;6.47;1.95;;;9.40;98.30;;;;;;5073525;28;20051;-50
2023/12/22 07:37:04;;;;;;;6.63;1.83;;;9.40;98.50;;;;;;5061947;28;20017;-50
2023/12/22 07:39:30;;;;;;;6.03;2.13;;;9.40;98.50;;;;;;5063693;28;20475;-50
2023/12/22 07:41:55;;;;;;;6.50;1.85;;;9.40;98.60;;;;;;5066287;28;20021;-50
2023/12/22 07:44:21;;;;;;;3.88;1.40;;;9.40;98.60;;;;;;5065553;28;20029;-50
2023/12/22 07:46:58;;;;;;;7.93;1.80;;;9.40;98.70;;;;;;5067639;28;20025;-50
2023/12/22 07:49:24;;;;;;;9.43;2.20;;;9.40;98.70;;;;;;5065508;28;20044;-50
2023/12/22 07:51:51;;;;;;;16.55;2.20;;;9.40;98.80;;;;;;5066343;28;20025;-50
2023/12/22 07:54:17;;;;;;;25.63;2.92;;;9.40;98.90;;;;;;5066325;28;20108;-50
2023/12/22 07:56:43;;;;;;;33.95;3.33;;;9.40;98.90;;;;;;5066191;28;20503;-50
2023/12/22 07:59:08;;;;;;;20.88;3.08;;;9.40;99.00;;;;;;5064700;28;20033;-50
2023/12/22 08:01:34;;;;;;;27.33;2.92;;;9.40;99.10;;;;;;5052236;28;20025;-51
2023/12/22 08:03:59;;;;;;;27.00;3.08;;;9.50;99.00;;;;;;5095788;28;20057;-50
2023/12/22 08:06:25;;;;;;;23.38;3.08;;;9.40;99.00;;;;;;5065641;28;20021;-50
2023/12/22 08:08:50;;;;;;;23.63;2.83;;;9.40;99.10;;;;;;5064114;28;20129;-50
2023/12/22 08:11:16;;;;;;;20.88;3.50;;;9.50;99.10;;;;;;5060171;28;20025;-50
2023/12/22 08:13:42;;;;;;;35.38;3.63;;;9.40;99.10;;;;;;5063789;28;20037;-50
2023/12/22 08:16:07;;;;;;;25.70;3.58;;;9.50;99.10;;;;;;5050931;28;20033;-50
2023/12/22 08:18:33;;;;;;;19.52;3.53;;;9.50;99.00;;;;;;5045489;28;20025;-50
2023/12/22 08:20:58;;;;;;;18.42;2.50;;;9.40;99.20;;;;;;5051064;28;20108;-50
2023/12/22 08:23:24;;;;;;;10.75;2.42;;;9.50;98.80;;;;;;5048685;28;20044;-50
2023/12/22 08:25:49;;;;;;;29.02;3.88;;;9.40;98.80;;;;;;5047356;28;20087;-50
2023/12/22 08:28:15;;;;;;;36.47;4.05;;;9.50;98.80;;;;;;5063257;28;20039;-50
2023/12/22 08:30:40;;;;;;;29.42;3.80;;;9.50;98.80;;;;;;5052969;28;20091;-50
2023/12/22 08:33:06;;;;;;;55.95;5.80;;;9.40;98.80;;;;;;5057398;28;20034;-50
2023/12/22 08:35:32;;;;;;;45.35;4.72;;;9.50;98.80;;;;;;5054926;28;20053;-50
2023/12/22 08:37:57;;;;;;;105.72;10.02;;;9.50;98.90;;;;;;5065509;28;20032;-50
2023/12/22 08:40:25;;;;;;;56.45;5.80;;;9.50;98.90;;;;;;5060881;28;20392;-50
2023/12/22 08:42:54;;;;;;;55.08;6.30;;;9.50;98.90;;;;;;5063723;28;20090;-50
2023/12/22 08:45:20;;;;;;;61.67;8.93;;;9.50;98.90;;;;;;5062711;28;20036;-50
2023/12/22 08:47:46;;;;;;;165.35;12.02;;;9.50;99.00;;;;;;5063863;28;20036;-50
2023/12/22 08:50:12;;;;;;;64.78;7.30;;;9.50;99.00;;;;;;5058439;28;20081;-50
2023/12/22 08:52:38;;;;;;;47.75;5.55;;;9.50;98.90;;;;;;5063951;28;20056;-50
2023/12/22 08:55:05;;;;;;;56.95;6.65;;;9.50;98.90;;;;;;5063090;28;20367;-50
2023/12/22 08:57:31;;;;;;;80.78;8.35;;;9.50;98.90;;;;;;5062244;28;20051;-50
2023/12/22 08:59:57;;;;;;;123.70;10.82;;;9.50;98.90;;;;;;5071609;28;20037;-50
2023/12/22 09:02:23;;;;;;;89.20;8.85;;;9.50;98.90;;;;;;5066250;28;20385;-50
2023/12/22 09:04:48;;;;;;;63.88;6.75;;;9.50;99.00;;;;;;5057987;28;20082;-50
2023/12/22 09:07:14;;;;;;;58.92;6.15;;;9.60;99.00;;;;;;5055856;28;20053;-50
2023/12/22 09:09:40;;;;;;;66.32;6.93;;;9.60;99.00;;;;;;5056296;28;20029;-50
2023/12/22 09:12:05;;;;;;;60.28;6.20;;;9.60;98.90;;;;;;5051224;28;20033;-50
2023/12/22 09:14:31;;;;;;;83.55;7.78;;;9.60;99.00;;;;;;5049151;28;20094;-51
2023/12/22 09:16:57;;;;;;;52.80;5.57;;;9.60;99.00;;;;;;5059794;28;20044;-50
2023/12/22 09:19:22;;;;;;;42.95;4.97;;;9.60;99.00;;;;;;5064466;28;20033;-50
2023/12/22 09:21:48;;;;;;;41.33;4.43;;;9.60;98.90;;;;;;5063976;28;20515;-50
2023/12/22 09:24:16;;;;;;;52.67;6.32;;;9.50;98.90;;;;;;5054515;28;20036;-50
2023/12/22 09:26:42;;;;;;;55.78;5.30;;;9.60;99.00;;;;;;5061157;28;20032;-50
2023/12/22 09:29:07;;;;;;;39.35;5.43;;;9.60;99.00;;;;;;5050176;28;20022;-50
2023/12/22 09:31:33;;;;;;;102.05;10.63;;;9.60;99.00;;;;;;5051082;28;20101;-50
2023/12/22 09:33:58;;;;;;;76.68;7.35;;;9.60;99.10;;;;;;5081368;28;20029;-50
2023/12/22 09:36:24;;;;;;;63.28;6.28;;;9.60;99.10;;;;;;5063767;28;20029;-51
2023/12/22 09:38:49;;;;;;;31.38;4.45;;;9.60;99.00;;;;;;5064113;28;20048;-50
2023/12/22 09:41:15;;;;;;;35.22;4.53;;;9.60;98.90;;;;;;5061327;28;20025;-50
2023/12/22 09:43:41;;;;;;;55.33;6.38;;;9.60;98.80;;;;;;5063941;28;20021;-50
2023/12/22 09:46:07;;;;;;;52.63;5.85;;;9.70;98.90;;;;;;5049557;28;20072;-50
2023/12/22 09:48:32;;;;;;;47.13;6.20;;;9.70;99.00;;;;;;5043799;28;20033;-50
2023/12/22 09:50:58;;;;;;;46.83;5.13;;;9.60;99.10;;;;;;5056112;28;20036;-50
2023/12/22 09:53:24;;;;;;;52.33;5.63;;;9.70;99.00;;;;;;5043286;28;20450;-50
2023/12/22 09:55:49;;;;;;;67.70;6.82;;;9.60;98.90;;;;;;5063289;28;20042;-50
2023/12/22 09:58:18;;;;;;;45.70;5.60;;;9.70;98.90;;;;;;5069508;28;20096;-50
2023/12/22 10:00:44;;;;;;;61.22;5.20;;;9.70;98.90;;;;;;5056884;28;20053;-50
2023/12/22 10:03:11;;;;;;;57.53;5.88;;;9.70;98.90;;;;;;5059158;28;20029;-50
2023/12/22 10:05:37;;;;;;;51.83;5.82;;;9.70;98.90;;;;;;5063381;28;20097;-50
2023/12/22 10:08:03;;;;;;;52.05;5.00;;;9.70;98.90;;;;;;5047789;28;20037;-50
2023/12/22 10:10:29;;;;;;;37.88;4.93;;;9.70;98.90;;;;;;5065800;28;20036;-50
2023/12/22 10:12:54;;;;;;;41.70;5.00;;;9.80;98.90;;;;;;5055946;28;20022;-50
2023/12/22 10:15:23;;;;;;;30.38;3.60;;;9.80;98.70;;;;;;5085281;28;20052;-50
2023/12/22 10:17:52;;;;;;;59.72;7.32;;;9.80;98.60;;;;;;5055105;28;20026;-50
2023/12/22 10:20:18;;;;;;;54.90;5.95;;;9.70;98.40;;;;;;5066409;28;20029;-50
2023/12/22 10:22:43;;;;;;;47.63;5.60;;;9.80;98.50;;;;;;5052513;28;20024;-50
2023/12/22 10:25:09;;;;;;;43.20;4.60;;;9.80;98.50;;;;;;5052360;28;20037;-50
2023/12/22 10:27:37;;;;;;;88.97;9.00;;;9.70;98.50;;;;;;5059383;28;20190;-50
2023/12/22 10:30:03;;;;;;;80.55;8.93;;;9.80;98.90;;;;;;5053982;28;20083;-50
2023/12/22 10:32:29;;;;;;;77.13;10.15;;;9.80;98.90;;;;;;5049741;28;20085;-50
2023/12/22 10:34:56;;;;;;;74.88;8.02;;;9.80;98.90;;;;;;5086287;28;20068;-50
2023/12/22 10:37:23;;;;;;;103.20;10.77;;;9.90;98.90;;;;;;5053252;28;20536;-50
2023/12/22 10:39:52;;;;;;;82.95;8.40;;;9.90;98.90;;;;;;5087989;28;20063;-50
2023/12/22 10:42:17;;;;;;;73.53;8.70;;;9.90;98.90;;;;;;5054053;28;20020;-50
2023/12/22 10:44:43;;;;;;;51.05;7.13;;;9.90;98.80;;;;;;5055966;28;20037;-50
2023/12/22 10:47:08;;;;;;;64.20;7.43;;;9.90;98.60;;;;;;5053360;28;20097;-50
2023/12/22 10:49:34;;;;;;;70.53;7.65;;;9.90;98.50;;;;;;5049174;28;20029;-50
2023/12/22 10:52:00;;;;;;;219.00;20.77;;;9.90;98.60;;;;;;5036118;28;20078;-50
2023/12/22 10:54:25;;;;;;;100.45;9.90;;;9.90;98.80;;;;;;5057027;28;20034;-54
2023/12/22 10:56:52;;;;;;;69.35;8.32;;;9.90;99.10;;;;;;5053470;28;20351;-50
2023/12/22 10:59:23;;;;;;;71.05;8.80;;;9.90;99.10;;;;;;5060786;28;20029;-50
2023/12/22 11:01:48;;;;;;;132.80;12.48;;;9.90;99.30;;;;;;5056546;28;20444;-50
2023/12/22 11:04:16;;;;;;;45.45;6.15;;;9.90;99.30;;;;;;5081768;28;20029;-50
2023/12/22 11:06:44;;;;;;;58.35;5.65;;;9.90;99.20;;;;;;5049682;28;20041;-50
2023/12/22 11:09:10;;;;;;;38.75;5.80;;;9.90;99.20;;;;;;5084433;28;20032;-50
2023/12/22 11:11:39;;;;;;;47.83;6.90;;;9.90;99.20;;;;;;5057282;28;20068;-49
2023/12/22 11:14:06;;;;;;;48.33;6.00;;;9.80;99.40;;;;;;5054642;28;20022;-50
2023/12/22 11:16:33;;;;;;;70.78;7.50;;;9.90;99.50;;;;;;5049483;28;20026;-50
2023/12/22 11:18:59;;;;;;;44.83;6.30;;;9.90;99.70;;;;;;5064207;28;20140;-50
2023/12/22 11:21:25;;;;;;;78.57;8.63;;;9.80;99.90;;;;;;5068287;28;20077;-50
2023/12/22 11:23:51;;;;;;;92.88;10.05;;;9.90;99.90;;;;;;5064856;28;20036;-50
2023/12/22 11:26:21;;;;;;;110.47;11.18;;;9.90;99.90;;;;;;5049849;28;20036;-50
2023/12/22 11:28:48;;;;;;;32.80;4.20;;;9.90;99.90;;;;;;5061104;28;20031;-50
2023/12/22 11:31:13;;;;;;;71.45;8.85;;;9.90;99.90;;;;;;5057772;28;20037;-50
2023/12/22 11:33:47;;;;;;;63.58;7.80;;;9.90;99.90;;;;;;5059793;28;20021;-49
2023/12/22 11:36:13;;;;;;;69.35;7.20;;;9.90;99.90;;;;;;5054170;28;20025;-50
2023/12/22 11:38:42;;;;;;;62.20;6.43;;;9.90;99.90;;;;;;5058055;28;20101;-50
2023/12/22 11:41:29;;;;;;;65.93;6.90;;;9.90;99.90;;;;;;5051474;28;20108;-50
2023/12/22 11:43:55;;;;;;;81.10;9.10;;;9.90;99.90;;;;;;5080615;28;20041;-58
2023/12/22 11:46:20;;;;;;;61.78;6.45;;;10.00;99.90;;;;;;5046107;28;20026;-58
2023/12/22 11:48:50;;;;;;;78.32;6.78;;;9.90;99.90;;;;;;5055586;28;20029;-59
2023/12/22 11:51:16;;;;;;;53.15;6.75;;;9.90;99.90;;;;;;5049312;28;20025;-59
2023/12/22 11:53:42;;;;;;;63.15;7.05;;;9.90;99.90;;;;;;5074712;28;20425;-59
2023/12/22 11:56:08;;;;;;;111.80;9.80;;;9.90;99.90;;;;;;5071105;28;20029;-59
2023/12/22 11:58:37;;;;;;;73.03;8.25;;;10.00;99.90;;;;;;5056959;28;20584;-58
2023/12/22 12:01:07;;;;;;;93.10;8.68;;;10.00;99.90;;;;;;5050832;28;20112;-58
2023/12/22 12:03:35;;;;;;;128.07;9.32;;;10.00;99.90;;;;;;5055754;28;20025;-58
2023/12/22 12:06:10;;;;;;;110.57;10.38;;;10.00;99.90;;;;;;5066115;28;20057;-58
2023/12/22 12:08:36;;;;;;;89.85;8.90;;;10.10;99.90;;;;;;5055093;28;20057;-58
2023/12/22 12:11:03;;;;;;;88.07;8.48;;;10.00;99.90;;;;;;5050142;28;20033;-58
2023/12/22 12:13:28;;;;;;;90.63;9.32;;;10.10;99.90;;;;;;5054844;28;20412;-57
2023/12/22 12:15:55;;;;;;;105.10;8.57;;;10.10;99.90;;;;;;5051691;28;21358;-58
2023/12/22 12:18:24;;;;;;;76.70;7.78;;;10.10;99.90;;;;;;5089551;28;20060;-58
2023/12/22 12:20:50;;;;;;;66.63;7.75;;;10.10;99.90;;;;;;5048843;28;20028;-58
2023/12/22 12:23:16;;;;;;;107.95;11.98;;;10.10;99.90;;;;;;5047903;28;20044;-59
2023/12/22 12:25:42;;;;;;;123.05;11.13;;;10.10;99.90;;;;;;5067122;28;20046;-59
2023/12/22 12:28:08;;;;;;;110.85;10.77;;;10.10;99.90;;;;;;5036541;28;20108;-58
2023/12/22 12:30:35;;;;;;;86.03;9.80;;;10.00;99.90;;;;;;5061561;28;20060;-58
2023/12/22 12:33:12;;;;;;;160.60;14.07;;;10.00;99.90;;;;;;5054954;28;20030;-58
2023/12/22 12:35:38;;;;;;;136.93;12.27;;;10.00;99.90;;;;;;5063401;28;20032;-58
2023/12/22 12:38:04;;;;;;;85.20;9.82;;;10.00;99.90;;;;;;5052450;28;20021;-58
2023/12/22 12:40:30;;;;;;;113.50;10.75;;;10.00;99.90;;;;;;5057184;28;20044;-59
2023/12/22 12:42:56;;;;;;;78.22;8.68;;;10.00;99.90;;;;;;5049514;28;20041;-58
2023/12/22 12:45:22;;;;;;;165.88;15.43;;;10.00;99.90;;;;;;5020570;28;20067;-58